Airfield :







YOU CAN JOIN US ON...

 
LOGIN :

Register | Disclaimer

   EN    FR    IT 

 









Legend :    VFR   Marginal VFR   IFR   Intensive IFR   Very Intensive IFR
Visi :
Ceiling :
>= 8 km
>= 3000ft
5 to 8 km
1000 to 3000 ft
1500m to 5 km
500 to 1000 ft
800 to 1500m
200 to 500 ft
< 800m
< 200 ft
Symbols :   Thunderstorms  Fog  Heavy snow  Heavy precipitations  Wind > 20 kt







- Airport Elevation : 118 ft
- IATA code : YUL


CYUL - Montréal - Pierre-Elliott-Trudeau Int.

CURRENT METAR :
  • 190100Z 25005KT 15SM FEW190 SCT250 M04/M12 A3028 RMK AC1CI4 AC TR SLP256

EXPIRED METARs :
  • 190000Z 26006KT 15SM SCT250 M02/M14 A3026 RMK CI3 SLP251
  • 182300Z 24009KT 30SM FEW050 SCT250 M02/M12 A3024 RMK SC1CI4 SC TR SLP245

TAF TAF CYUL
Valid from the 19 at 00:00 until the 20 at 00:00 UTC


182338Z 1900/1924 24008KT P6SM FEW050
FM190200 VRB03KT P6SM SKC
FM191600 22006KT P6SM FEW030 RMK NXT FCST BY 190300Z
ATIS : ENG : +1 514-633-3037 FRA : +1 514-633-3034
CZUL FIR / North America



MET'MAP, your aeronautical weather chart ! - Copyright ORBIFLY December 2007 - Disclaimer

ORBIFLY MET'MAP TEAM :

Programming & Development : Alexandra Zaïnal
Concept & Development : Baudouin d'Aumeries
Co-Development & Prog : Marc-Olivier Méhu
Technical & hardware support : Manuel Goepfert

Contact : metmap@orbifly.com




SOURCES & CREDITS :

   NOAA